map of MAO home
Great Circle Mapper logo
MAO - Airport
Location
City:  Manaus, Amazonas, Brazil
Name:Eduardo Gomes International Airport
Old (Alt.):Manaus International Airport
ICAO / IATA:SBEG / MAO

Details
Type:Airport (Aerodrome, Airfield)
Use:Public/Civil, International (customs port of entry)
Latitude:302'19"S (-3.038610)
Longitude:6002'59"W (-60.049720)
Datum:WGS 1984
Elevation:264 ft (80 m)
Variation:15.4W (WMM2015 magnetic declination)
Runways:1
Longest:8858 × 148 ft (2700 × 45 m), paved

Time
Time Zone:UTC-4
Local Time:

Weather
METAR:SBEG 171900Z 25005KT 9999 TS VCSH BKN020 FEW025CB 31/23 Q1009

Related Locations
Nearby:
Farthest:SMM: 12304 mi / 19801 km
Semporna, Sabah, MY

Find:

   beyond  
but within

Other Information
Maps:
NOTAMs:
Links:
Sources:

  
flag of Brazil
flag of Amazonas
flag of Manaus
  

Airport Diagram

Airport diagram for MAO

Airport diagram (OBSOLETE) from NGA

Sectional Chart

Flight Planning
at skyvector.com

Satellite Image

Google Maps Satellite View

 

Copyright © 2004-2014 Karl L. Swartz. All rights reserved.
The Great Circle Mapper name and logo are trademarks of the Great Circle Mapper.
All other trademarks mentioned herein belong to their respective owners.
Please see credits for attibutions and further copyright information.

  Follow gcmap on Facebook Follow gcmap on Twitter

hCard Microformat

Geo Microformat